sensor_id;sensor_type;location;lat;lon;timestamp;P1;durP1;ratioP1;P2;durP2;ratioP2
53207;SDS011;39093;52.788;6.940;2023-05-08T00:00:42;12.70;;;10.60;;
53207;SDS011;39093;52.788;6.940;2023-05-08T00:03:09;11.82;;;10.55;;
53207;SDS011;39093;52.788;6.940;2023-05-08T00:05:36;15.32;;;10.95;;
53207;SDS011;39093;52.788;6.940;2023-05-08T00:08:03;11.45;;;10.20;;
53207;SDS011;39093;52.788;6.940;2023-05-08T00:10:30;11.30;;;10.18;;
53207;SDS011;39093;52.788;6.940;2023-05-08T00:12:56;11.27;;;9.98;;
53207;SDS011;39093;52.788;6.940;2023-05-08T00:15:24;12.48;;;10.55;;
53207;SDS011;39093;52.788;6.940;2023-05-08T00:17:51;11.52;;;10.32;;
53207;SDS011;39093;52.788;6.940;2023-05-08T00:20:18;12.40;;;11.00;;
53207;SDS011;39093;52.788;6.940;2023-05-08T00:22:45;11.40;;;9.82;;
53207;SDS011;39093;52.788;6.940;2023-05-08T00:25:12;14.30;;;10.75;;
53207;SDS011;39093;52.788;6.940;2023-05-08T00:27:39;12.88;;;11.07;;
53207;SDS011;39093;52.788;6.940;2023-05-08T00:30:06;14.30;;;10.32;;
53207;SDS011;39093;52.788;6.940;2023-05-08T00:32:33;11.10;;;10.00;;
53207;SDS011;39093;52.788;6.940;2023-05-08T00:35:00;11.82;;;9.82;;
53207;SDS011;39093;52.788;6.940;2023-05-08T00:37:27;11.88;;;10.52;;
53207;SDS011;39093;52.788;6.940;2023-05-08T00:39:54;12.77;;;10.98;;
53207;SDS011;39093;52.788;6.940;2023-05-08T00:42:21;11.75;;;9.85;;
53207;SDS011;39093;52.788;6.940;2023-05-08T00:44:48;11.45;;;9.68;;
53207;SDS011;39093;52.788;6.940;2023-05-08T00:47:15;11.60;;;10.40;;
53207;SDS011;39093;52.788;6.940;2023-05-08T00:49:42;12.68;;;11.05;;
53207;SDS011;39093;52.788;6.940;2023-05-08T00:52:09;12.00;;;10.27;;
53207;SDS011;39093;52.788;6.940;2023-05-08T00:54:36;12.93;;;10.48;;
53207;SDS011;39093;52.788;6.940;2023-05-08T00:57:07;11.60;;;10.50;;
53207;SDS011;39093;52.788;6.940;2023-05-08T00:59:34;11.93;;;10.55;;
53207;SDS011;39093;52.788;6.940;2023-05-08T01:02:02;12.32;;;11.05;;
53207;SDS011;39093;52.788;6.940;2023-05-08T01:04:30;12.20;;;10.95;;
53207;SDS011;39093;52.788;6.940;2023-05-08T01:07:01;13.00;;;10.90;;
53207;SDS011;39093;52.788;6.940;2023-05-08T01:09:28;16.17;;;10.55;;
53207;SDS011;39093;52.788;6.940;2023-05-08T01:15:17;11.88;;;10.75;;
53207;SDS011;39093;52.788;6.940;2023-05-08T01:32:31;12.07;;;10.73;;
53207;SDS011;39093;52.788;6.940;2023-05-08T01:37:55;12.30;;;10.43;;
53207;SDS011;39093;52.788;6.940;2023-05-08T01:43:05;11.63;;;10.43;;
53207;SDS011;39093;52.788;6.940;2023-05-08T01:45:47;12.10;;;10.80;;
53207;SDS011;39093;52.788;6.940;2023-05-08T01:48:18;11.60;;;10.40;;
53207;SDS011;39093;52.788;6.940;2023-05-08T01:50:59;12.15;;;10.60;;
53207;SDS011;39093;52.788;6.940;2023-05-08T01:53:35;12.65;;;10.98;;
53207;SDS011;39093;52.788;6.940;2023-05-08T01:56:10;13.02;;;10.82;;
53207;SDS011;39093;52.788;6.940;2023-05-08T01:58:40;13.20;;;10.55;;
53207;SDS011;39093;52.788;6.940;2023-05-08T02:01:08;13.38;;;10.75;;
53207;SDS011;39093;52.788;6.940;2023-05-08T02:03:38;11.30;;;10.10;;
53207;SDS011;39093;52.788;6.940;2023-05-08T02:06:08;13.43;;;11.10;;
53207;SDS011;39093;52.788;6.940;2023-05-08T02:08:43;12.30;;;10.70;;
53207;SDS011;39093;52.788;6.940;2023-05-08T02:11:16;11.27;;;10.18;;
53207;SDS011;39093;52.788;6.940;2023-05-08T02:13:45;14.20;;;11.43;;
53207;SDS011;39093;52.788;6.940;2023-05-08T02:16:14;12.32;;;11.05;;
53207;SDS011;39093;52.788;6.940;2023-05-08T02:18:43;16.45;;;10.77;;
53207;SDS011;39093;52.788;6.940;2023-05-08T02:21:14;11.88;;;10.68;;
53207;SDS011;39093;52.788;6.940;2023-05-08T02:23:42;11.65;;;10.45;;
53207;SDS011;39093;52.788;6.940;2023-05-08T02:26:10;13.13;;;11.30;;
53207;SDS011;39093;52.788;6.940;2023-05-08T02:28:40;12.40;;;11.10;;
53207;SDS011;39093;52.788;6.940;2023-05-08T02:31:08;13.23;;;11.05;;
53207;SDS011;39093;52.788;6.940;2023-05-08T02:33:37;13.60;;;11.32;;
53207;SDS011;39093;52.788;6.940;2023-05-08T02:36:07;12.13;;;10.68;;
53207;SDS011;39093;52.788;6.940;2023-05-08T02:38:36;13.20;;;11.27;;
53207;SDS011;39093;52.788;6.940;2023-05-08T02:41:05;14.10;;;11.43;;
53207;SDS011;39093;52.788;6.940;2023-05-08T02:43:33;12.25;;;10.90;;
53207;SDS011;39093;52.788;6.940;2023-05-08T02:51:42;12.85;;;10.90;;
53207;SDS011;39093;52.788;6.940;2023-05-08T02:54:20;12.40;;;10.68;;
53207;SDS011;39093;52.788;6.940;2023-05-08T03:00:18;12.05;;;10.77;;
53207;SDS011;39093;52.788;6.940;2023-05-08T03:05:37;12.80;;;11.48;;
53207;SDS011;39093;52.788;6.940;2023-05-08T03:08:10;11.85;;;10.50;;
53207;SDS011;39093;52.788;6.940;2023-05-08T03:10:41;12.68;;;11.38;;
53207;SDS011;39093;52.788;6.940;2023-05-08T03:13:12;12.73;;;11.45;;
53207;SDS011;39093;52.788;6.940;2023-05-08T03:15:45;12.30;;;10.77;;
53207;SDS011;39093;52.788;6.940;2023-05-08T03:18:34;12.68;;;11.20;;
53207;SDS011;39093;52.788;6.940;2023-05-08T03:21:03;12.70;;;10.00;;
53207;SDS011;39093;52.788;6.940;2023-05-08T03:23:32;13.10;;;11.63;;
53207;SDS011;39093;52.788;6.940;2023-05-08T03:26:00;14.73;;;11.60;;
53207;SDS011;39093;52.788;6.940;2023-05-08T03:28:29;12.48;;;10.52;;
53207;SDS011;39093;52.788;6.940;2023-05-08T03:30:57;12.55;;;10.95;;
53207;SDS011;39093;52.788;6.940;2023-05-08T03:33:26;12.88;;;11.35;;
53207;SDS011;39093;52.788;6.940;2023-05-08T03:35:54;12.77;;;11.40;;
53207;SDS011;39093;52.788;6.940;2023-05-08T03:38:22;11.75;;;10.55;;
53207;SDS011;39093;52.788;6.940;2023-05-08T03:40:49;11.85;;;10.23;;
53207;SDS011;39093;52.788;6.940;2023-05-08T03:43:16;15.55;;;10.93;;
53207;SDS011;39093;52.788;6.940;2023-05-08T03:45:45;12.77;;;11.40;;
53207;SDS011;39093;52.788;6.940;2023-05-08T03:48:13;12.43;;;11.23;;
53207;SDS011;39093;52.788;6.940;2023-05-08T03:50:40;10.95;;;9.85;;
53207;SDS011;39093;52.788;6.940;2023-05-08T03:53:08;13.38;;;10.82;;
53207;SDS011;39093;52.788;6.940;2023-05-08T03:55:35;10.80;;;9.70;;
53207;SDS011;39093;52.788;6.940;2023-05-08T03:58:04;11.52;;;10.05;;
53207;SDS011;39093;52.788;6.940;2023-05-08T04:03:48;10.93;;;9.82;;
53207;SDS011;39093;52.788;6.940;2023-05-08T04:09:30;13.85;;;10.77;;
53207;SDS011;39093;52.788;6.940;2023-05-08T04:12:17;11.40;;;10.25;;
53207;SDS011;39093;52.788;6.940;2023-05-08T04:14:54;11.55;;;10.05;;
53207;SDS011;39093;52.788;6.940;2023-05-08T04:20:13;16.77;;;13.48;;
53207;SDS011;39093;52.788;6.940;2023-05-08T04:22:44;11.17;;;10.03;;
53207;SDS011;39093;52.788;6.940;2023-05-08T04:25:15;10.70;;;9.57;;
53207;SDS011;39093;52.788;6.940;2023-05-08T04:27:43;11.77;;;10.57;;
53207;SDS011;39093;52.788;6.940;2023-05-08T04:30:11;10.75;;;9.63;;
53207;SDS011;39093;52.788;6.940;2023-05-08T04:32:38;10.52;;;9.52;;
53207;SDS011;39093;52.788;6.940;2023-05-08T04:35:10;10.63;;;9.43;;
53207;SDS011;39093;52.788;6.940;2023-05-08T04:37:39;13.40;;;9.48;;
53207;SDS011;39093;52.788;6.940;2023-05-08T04:40:07;11.30;;;9.82;;
53207;SDS011;39093;52.788;6.940;2023-05-08T04:42:35;10.43;;;9.30;;
53207;SDS011;39093;52.788;6.940;2023-05-08T04:45:05;11.27;;;9.43;;
53207;SDS011;39093;52.788;6.940;2023-05-08T04:47:32;10.65;;;9.52;;
53207;SDS011;39093;52.788;6.940;2023-05-08T04:49:59;9.70;;;8.73;;
53207;SDS011;39093;52.788;6.940;2023-05-08T04:52:28;11.52;;;9.40;;
53207;SDS011;39093;52.788;6.940;2023-05-08T04:54:55;12.20;;;9.63;;
53207;SDS011;39093;52.788;6.940;2023-05-08T04:57:22;11.73;;;9.52;;
53207;SDS011;39093;52.788;6.940;2023-05-08T04:59:49;10.00;;;9.05;;
53207;SDS011;39093;52.788;6.940;2023-05-08T05:02:16;9.95;;;8.95;;
53207;SDS011;39093;52.788;6.940;2023-05-08T05:04:43;10.13;;;8.73;;
53207;SDS011;39093;52.788;6.940;2023-05-08T05:07:10;9.70;;;8.70;;
53207;SDS011;39093;52.788;6.940;2023-05-08T05:09:37;9.85;;;8.85;;
53207;SDS011;39093;52.788;6.940;2023-05-08T05:12:05;9.20;;;8.27;;
53207;SDS011;39093;52.788;6.940;2023-05-08T05:14:32;9.23;;;8.32;;
53207;SDS011;39093;52.788;6.940;2023-05-08T05:16:59;11.73;;;8.68;;
53207;SDS011;39093;52.788;6.940;2023-05-08T05:19:26;10.20;;;9.05;;
53207;SDS011;39093;52.788;6.940;2023-05-08T05:21:53;10.02;;;8.40;;
53207;SDS011;39093;52.788;6.940;2023-05-08T05:24:20;9.98;;;9.00;;
53207;SDS011;39093;52.788;6.940;2023-05-08T05:26:47;10.23;;;8.80;;
53207;SDS011;39093;52.788;6.940;2023-05-08T05:29:14;11.25;;;9.40;;
53207;SDS011;39093;52.788;6.940;2023-05-08T05:31:41;10.65;;;8.90;;
53207;SDS011;39093;52.788;6.940;2023-05-08T05:34:08;9.10;;;8.20;;
53207;SDS011;39093;52.788;6.940;2023-05-08T05:36:35;9.02;;;8.13;;
53207;SDS011;39093;52.788;6.940;2023-05-08T05:39:02;9.45;;;8.23;;
53207;SDS011;39093;52.788;6.940;2023-05-08T05:41:29;11.65;;;8.32;;
53207;SDS011;39093;52.788;6.940;2023-05-08T05:43:56;9.93;;;8.93;;
53207;SDS011;39093;52.788;6.940;2023-05-08T05:46:23;8.93;;;8.02;;
53207;SDS011;39093;52.788;6.940;2023-05-08T05:48:59;8.52;;;7.70;;
53207;SDS011;39093;52.788;6.940;2023-05-08T05:51:26;9.13;;;8.23;;
53207;SDS011;39093;52.788;6.940;2023-05-08T05:53:53;10.23;;;9.00;;
53207;SDS011;39093;52.788;6.940;2023-05-08T05:56:20;9.77;;;8.77;;
53207;SDS011;39093;52.788;6.940;2023-05-08T05:58:48;11.40;;;8.05;;
53207;SDS011;39093;52.788;6.940;2023-05-08T06:01:15;11.32;;;8.98;;
53207;SDS011;39093;52.788;6.940;2023-05-08T06:03:42;10.68;;;9.20;;
53207;SDS011;39093;52.788;6.940;2023-05-08T06:06:09;10.50;;;9.07;;
53207;SDS011;39093;52.788;6.940;2023-05-08T06:08:36;11.18;;;8.40;;
53207;SDS011;39093;52.788;6.940;2023-05-08T06:11:03;9.80;;;8.80;;
53207;SDS011;39093;52.788;6.940;2023-05-08T06:13:30;10.30;;;8.05;;
53207;SDS011;39093;52.788;6.940;2023-05-08T06:15:57;9.98;;;8.98;;
53207;SDS011;39093;52.788;6.940;2023-05-08T06:18:24;10.95;;;8.18;;
53207;SDS011;39093;52.788;6.940;2023-05-08T06:20:58;11.88;;;8.85;;
53207;SDS011;39093;52.788;6.940;2023-05-08T06:23:25;9.27;;;8.27;;
53207;SDS011;39093;52.788;6.940;2023-05-08T06:25:52;9.57;;;8.52;;
53207;SDS011;39093;52.788;6.940;2023-05-08T06:28:19;11.00;;;9.38;;
53207;SDS011;39093;52.788;6.940;2023-05-08T06:30:49;9.95;;;8.45;;
53207;SDS011;39093;52.788;6.940;2023-05-08T06:33:16;9.50;;;8.57;;
53207;SDS011;39093;52.788;6.940;2023-05-08T06:35:46;8.25;;;7.43;;
53207;SDS011;39093;52.788;6.940;2023-05-08T06:38:13;10.35;;;8.02;;
53207;SDS011;39093;52.788;6.940;2023-05-08T06:40:41;10.73;;;7.18;;
53207;SDS011;39093;52.788;6.940;2023-05-08T06:43:09;9.93;;;7.68;;
53207;SDS011;39093;52.788;6.940;2023-05-08T06:45:37;9.13;;;7.47;;
53207;SDS011;39093;52.788;6.940;2023-05-08T06:48:05;8.85;;;7.95;;
53207;SDS011;39093;52.788;6.940;2023-05-08T06:50:32;8.73;;;7.20;;
53207;SDS011;39093;52.788;6.940;2023-05-08T06:52:59;9.20;;;7.35;;
53207;SDS011;39093;52.788;6.940;2023-05-08T06:55:25;9.07;;;8.18;;
53207;SDS011;39093;52.788;6.940;2023-05-08T06:57:52;12.40;;;9.95;;
53207;SDS011;39093;52.788;6.940;2023-05-08T07:00:19;9.27;;;8.02;;
53207;SDS011;39093;52.788;6.940;2023-05-08T07:02:46;9.30;;;7.68;;
53207;SDS011;39093;52.788;6.940;2023-05-08T07:05:13;11.93;;;7.85;;
53207;SDS011;39093;52.788;6.940;2023-05-08T07:07:41;9.45;;;7.60;;
53207;SDS011;39093;52.788;6.940;2023-05-08T07:10:08;9.23;;;7.65;;
53207;SDS011;39093;52.788;6.940;2023-05-08T07:12:35;7.85;;;7.05;;
53207;SDS011;39093;52.788;6.940;2023-05-08T07:15:03;7.45;;;6.75;;
53207;SDS011;39093;52.788;6.940;2023-05-08T07:17:49;9.32;;;6.25;;
53207;SDS011;39093;52.788;6.940;2023-05-08T07:20:16;8.98;;;6.70;;
53207;SDS011;39093;52.788;6.940;2023-05-08T07:22:43;9.40;;;6.22;;
53207;SDS011;39093;52.788;6.940;2023-05-08T07:25:10;8.35;;;6.28;;
53207;SDS011;39093;52.788;6.940;2023-05-08T07:27:38;6.70;;;5.95;;
53207;SDS011;39093;52.788;6.940;2023-05-08T07:30:05;6.55;;;5.95;;
53207;SDS011;39093;52.788;6.940;2023-05-08T07:32:33;6.80;;;6.00;;
53207;SDS011;39093;52.788;6.940;2023-05-08T07:35:00;8.40;;;6.45;;
53207;SDS011;39093;52.788;6.940;2023-05-08T07:37:28;8.15;;;7.35;;
53207;SDS011;39093;52.788;6.940;2023-05-08T07:39:55;6.72;;;6.13;;
53207;SDS011;39093;52.788;6.940;2023-05-08T07:42:21;6.43;;;5.70;;
53207;SDS011;39093;52.788;6.940;2023-05-08T07:44:48;6.85;;;6.15;;
53207;SDS011;39093;52.788;6.940;2023-05-08T07:47:20;7.03;;;6.27;;
53207;SDS011;39093;52.788;6.940;2023-05-08T07:49:47;6.22;;;5.63;;
53207;SDS011;39093;52.788;6.940;2023-05-08T07:52:14;8.85;;;6.03;;
53207;SDS011;39093;52.788;6.940;2023-05-08T07:54:42;6.90;;;6.20;;
53207;SDS011;39093;52.788;6.940;2023-05-08T07:57:09;5.93;;;5.38;;
53207;SDS011;39093;52.788;6.940;2023-05-08T07:59:36;7.55;;;6.10;;
53207;SDS011;39093;52.788;6.940;2023-05-08T08:02:03;7.22;;;6.43;;
53207;SDS011;39093;52.788;6.940;2023-05-08T08:04:31;9.32;;;5.80;;
53207;SDS011;39093;52.788;6.940;2023-05-08T08:06:58;8.38;;;6.25;;
53207;SDS011;39093;52.788;6.940;2023-05-08T08:09:27;5.97;;;5.47;;
53207;SDS011;39093;52.788;6.940;2023-05-08T08:11:54;6.93;;;6.18;;
53207;SDS011;39093;52.788;6.940;2023-05-08T08:14:21;6.93;;;6.32;;
53207;SDS011;39093;52.788;6.940;2023-05-08T08:16:48;6.70;;;6.07;;
53207;SDS011;39093;52.788;6.940;2023-05-08T10:51:44;10.80;;;9.70;;
53207;SDS011;39093;52.788;6.940;2023-05-08T10:54:29;8.50;;;7.68;;
53207;SDS011;39093;52.788;6.940;2023-05-08T10:57:11;7.90;;;7.10;;
53207;SDS011;39093;52.788;6.940;2023-05-08T10:59:37;8.90;;;8.10;;
53207;SDS011;39093;52.788;6.940;2023-05-08T11:02:12;9.77;;;7.78;;
53207;SDS011;39093;52.788;6.940;2023-05-08T11:04:39;8.88;;;8.00;;
53207;SDS011;39093;52.788;6.940;2023-05-08T11:07:06;9.25;;;8.32;;
53207;SDS011;39093;52.788;6.940;2023-05-08T11:12:07;9.05;;;8.25;;
53207;SDS011;39093;52.788;6.940;2023-05-08T11:14:43;11.65;;;9.90;;
53207;SDS011;39093;52.788;6.940;2023-05-08T11:17:25;10.37;;;8.87;;
53207;SDS011;39093;52.788;6.940;2023-05-08T11:19:56;13.10;;;9.07;;
53207;SDS011;39093;52.788;6.940;2023-05-08T11:22:25;9.93;;;8.95;;
53207;SDS011;39093;52.788;6.940;2023-05-08T11:24:58;19.77;;;9.60;;
53207;SDS011;39093;52.788;6.940;2023-05-08T11:27:30;13.02;;;9.32;;
53207;SDS011;39093;52.788;6.940;2023-05-08T11:38:10;9.48;;;7.95;;
53207;SDS011;39093;52.788;6.940;2023-05-08T11:41:01;10.75;;;7.15;;
53207;SDS011;39093;52.788;6.940;2023-05-08T11:46:41;9.73;;;8.82;;
53207;SDS011;39093;52.788;6.940;2023-05-08T11:49:09;11.32;;;9.13;;
53207;SDS011;39093;52.788;6.940;2023-05-08T11:51:37;8.50;;;7.70;;
53207;SDS011;39093;52.788;6.940;2023-05-08T11:54:04;8.75;;;7.95;;
53207;SDS011;39093;52.788;6.940;2023-05-08T11:56:31;8.70;;;7.82;;
53207;SDS011;39093;52.788;6.940;2023-05-08T11:59:05;10.50;;;8.15;;
53207;SDS011;39093;52.788;6.940;2023-05-08T12:01:34;10.35;;;7.82;;
53207;SDS011;39093;52.788;6.940;2023-05-08T12:04:02;9.85;;;7.28;;
53207;SDS011;39093;52.788;6.940;2023-05-08T12:09:08;8.25;;;7.45;;
53207;SDS011;39093;52.788;6.940;2023-05-08T12:11:40;7.45;;;6.75;;
53207;SDS011;39093;52.788;6.940;2023-05-08T12:14:10;8.65;;;7.75;;
53207;SDS011;39093;52.788;6.940;2023-05-08T12:16:39;9.48;;;6.60;;
53207;SDS011;39093;52.788;6.940;2023-05-08T12:19:09;6.72;;;6.13;;
53207;SDS011;39093;52.788;6.940;2023-05-08T12:21:38;9.43;;;8.52;;
53207;SDS011;39093;52.788;6.940;2023-05-08T12:24:12;9.88;;;7.65;;
53207;SDS011;39093;52.788;6.940;2023-05-08T12:26:42;12.20;;;8.85;;
53207;SDS011;39093;52.788;6.940;2023-05-08T12:29:09;10.88;;;8.45;;
53207;SDS011;39093;52.788;6.940;2023-05-08T12:31:36;8.23;;;7.50;;
53207;SDS011;39093;52.788;6.940;2023-05-08T12:34:04;7.82;;;6.80;;
53207;SDS011;39093;52.788;6.940;2023-05-08T12:36:34;8.80;;;6.55;;
53207;SDS011;39093;52.788;6.940;2023-05-08T12:39:12;8.63;;;6.82;;
53207;SDS011;39093;52.788;6.940;2023-05-08T12:41:49;8.98;;;7.18;;
53207;SDS011;39093;52.788;6.940;2023-05-08T12:44:18;9.38;;;8.48;;
53207;SDS011;39093;52.788;6.940;2023-05-08T12:46:49;9.00;;;8.20;;
53207;SDS011;39093;52.788;6.940;2023-05-08T12:49:31;9.90;;;8.90;;
53207;SDS011;39093;52.788;6.940;2023-05-08T12:54:31;9.75;;;8.75;;
53207;SDS011;39093;52.788;6.940;2023-05-08T12:56:59;8.43;;;7.65;;
53207;SDS011;39093;52.788;6.940;2023-05-08T12:59:32;8.45;;;7.65;;
53207;SDS011;39093;52.788;6.940;2023-05-08T13:01:59;8.13;;;7.35;;
53207;SDS011;39093;52.788;6.940;2023-05-08T13:04:26;9.23;;;8.32;;
53207;SDS011;39093;52.788;6.940;2023-05-08T13:06:54;8.55;;;7.78;;
53207;SDS011;39093;52.788;6.940;2023-05-08T13:09:24;9.05;;;7.55;;
53207;SDS011;39093;52.788;6.940;2023-05-08T13:11:50;8.70;;;7.00;;
53207;SDS011;39093;52.788;6.940;2023-05-08T13:14:17;8.07;;;7.05;;
53207;SDS011;39093;52.788;6.940;2023-05-08T13:16:44;10.05;;;9.00;;
53207;SDS011;39093;52.788;6.940;2023-05-08T13:19:13;9.75;;;8.75;;
53207;SDS011;39093;52.788;6.940;2023-05-08T13:21:41;10.60;;;9.40;;
53207;SDS011;39093;52.788;6.940;2023-05-08T13:24:11;10.13;;;8.20;;
53207;SDS011;39093;52.788;6.940;2023-05-08T13:26:41;12.00;;;8.95;;
53207;SDS011;39093;52.788;6.940;2023-05-08T13:29:09;11.68;;;10.43;;
53207;SDS011;39093;52.788;6.940;2023-05-08T13:31:36;13.25;;;10.80;;
53207;SDS011;39093;52.788;6.940;2023-05-08T13:34:03;12.57;;;10.85;;
53207;SDS011;39093;52.788;6.940;2023-05-08T13:36:30;11.77;;;10.55;;
53207;SDS011;39093;52.788;6.940;2023-05-08T13:38:57;15.55;;;11.23;;
53207;SDS011;39093;52.788;6.940;2023-05-08T13:41:24;11.23;;;10.10;;
53207;SDS011;39093;52.788;6.940;2023-05-08T13:43:51;14.32;;;10.90;;
53207;SDS011;39093;52.788;6.940;2023-05-08T13:46:18;12.57;;;10.15;;
53207;SDS011;39093;52.788;6.940;2023-05-08T13:48:45;12.30;;;10.90;;
53207;SDS011;39093;52.788;6.940;2023-05-08T13:51:11;13.07;;;9.15;;
53207;SDS011;39093;52.788;6.940;2023-05-08T13:53:38;14.02;;;11.07;;
53207;SDS011;39093;52.788;6.940;2023-05-08T13:56:05;14.10;;;10.75;;
53207;SDS011;39093;52.788;6.940;2023-05-08T13:58:33;12.25;;;10.25;;
53207;SDS011;39093;52.788;6.940;2023-05-08T14:00:59;13.38;;;10.57;;
53207;SDS011;39093;52.788;6.940;2023-05-08T14:03:39;14.25;;;10.73;;
53207;SDS011;39093;52.788;6.940;2023-05-08T14:06:06;13.25;;;10.50;;
53207;SDS011;39093;52.788;6.940;2023-05-08T14:08:33;11.15;;;9.93;;
53207;SDS011;39093;52.788;6.940;2023-05-08T14:11:05;14.35;;;10.38;;
53207;SDS011;39093;52.788;6.940;2023-05-08T14:13:32;13.40;;;11.00;;
53207;SDS011;39093;52.788;6.940;2023-05-08T14:15:59;13.23;;;9.70;;
53207;SDS011;39093;52.788;6.940;2023-05-08T14:18:26;10.88;;;8.93;;
53207;SDS011;39093;52.788;6.940;2023-05-08T14:20:53;12.27;;;9.48;;
53207;SDS011;39093;52.788;6.940;2023-05-08T14:23:22;11.88;;;8.73;;
53207;SDS011;39093;52.788;6.940;2023-05-08T14:25:49;9.13;;;7.95;;
53207;SDS011;39093;52.788;6.940;2023-05-08T14:28:16;10.43;;;9.00;;
53207;SDS011;39093;52.788;6.940;2023-05-08T14:30:43;13.00;;;9.70;;
53207;SDS011;39093;52.788;6.940;2023-05-08T14:33:10;13.05;;;10.60;;
53207;SDS011;39093;52.788;6.940;2023-05-08T14:35:37;11.30;;;9.82;;
53207;SDS011;39093;52.788;6.940;2023-05-08T14:38:08;13.63;;;10.00;;
53207;SDS011;39093;52.788;6.940;2023-05-08T14:40:38;11.13;;;9.85;;
53207;SDS011;39093;52.788;6.940;2023-05-08T14:43:05;14.60;;;11.27;;
53207;SDS011;39093;52.788;6.940;2023-05-08T14:45:32;15.23;;;11.98;;
53207;SDS011;39093;52.788;6.940;2023-05-08T14:47:59;11.23;;;10.05;;
53207;SDS011;39093;52.788;6.940;2023-05-08T14:50:26;13.70;;;8.77;;
53207;SDS011;39093;52.788;6.940;2023-05-08T14:52:53;8.73;;;7.82;;
53207;SDS011;39093;52.788;6.940;2023-05-08T14:55:20;6.50;;;5.90;;
53207;SDS011;39093;52.788;6.940;2023-05-08T14:57:50;5.80;;;4.60;;
53207;SDS011;39093;52.788;6.940;2023-05-08T15:00:17;6.85;;;5.38;;
53207;SDS011;39093;52.788;6.940;2023-05-08T15:02:45;6.35;;;5.18;;
53207;SDS011;39093;52.788;6.940;2023-05-08T15:05:12;4.03;;;3.63;;
53207;SDS011;39093;52.788;6.940;2023-05-08T15:07:59;5.28;;;3.30;;
53207;SDS011;39093;52.788;6.940;2023-05-08T15:10:27;5.88;;;3.40;;
53207;SDS011;39093;52.788;6.940;2023-05-08T15:12:54;2.83;;;2.58;;
53207;SDS011;39093;52.788;6.940;2023-05-08T15:15:21;4.10;;;3.70;;
53207;SDS011;39093;52.788;6.940;2023-05-08T15:17:48;5.38;;;4.60;;
53207;SDS011;39093;52.788;6.940;2023-05-08T15:20:15;5.05;;;4.28;;
53207;SDS011;39093;52.788;6.940;2023-05-08T15:22:42;4.97;;;4.38;;
53207;SDS011;39093;52.788;6.940;2023-05-08T15:25:09;7.10;;;4.30;;
53207;SDS011;39093;52.788;6.940;2023-05-08T15:27:37;4.55;;;4.00;;
53207;SDS011;39093;52.788;6.940;2023-05-08T15:30:04;4.65;;;4.25;;
53207;SDS011;39093;52.788;6.940;2023-05-08T15:32:31;4.80;;;4.10;;
53207;SDS011;39093;52.788;6.940;2023-05-08T15:34:58;7.18;;;5.90;;
53207;SDS011;39093;52.788;6.940;2023-05-08T15:37:25;7.30;;;6.60;;
53207;SDS011;39093;52.788;6.940;2023-05-08T15:39:52;11.77;;;9.48;;
53207;SDS011;39093;52.788;6.940;2023-05-08T15:42:19;9.82;;;8.82;;
53207;SDS011;39093;52.788;6.940;2023-05-08T15:44:46;10.65;;;9.65;;
53207;SDS011;39093;52.788;6.940;2023-05-08T15:47:16;9.30;;;8.38;;
53207;SDS011;39093;52.788;6.940;2023-05-08T15:49:44;9.65;;;8.75;;
53207;SDS011;39093;52.788;6.940;2023-05-08T15:52:11;10.55;;;8.80;;
53207;SDS011;39093;52.788;6.940;2023-05-08T15:54:40;10.40;;;9.40;;
53207;SDS011;39093;52.788;6.940;2023-05-08T15:57:07;11.02;;;10.02;;
53207;SDS011;39093;52.788;6.940;2023-05-08T15:59:34;11.90;;;10.63;;
53207;SDS011;39093;52.788;6.940;2023-05-08T16:02:03;11.70;;;10.52;;
53207;SDS011;39093;52.788;6.940;2023-05-08T16:04:30;10.80;;;9.80;;
53207;SDS011;39093;52.788;6.940;2023-05-08T16:06:58;10.35;;;9.35;;
53207;SDS011;39093;52.788;6.940;2023-05-08T16:09:25;9.95;;;8.93;;
53207;SDS011;39093;52.788;6.940;2023-05-08T16:11:52;11.35;;;10.25;;
53207;SDS011;39093;52.788;6.940;2023-05-08T16:14:19;9.98;;;9.07;;
53207;SDS011;39093;52.788;6.940;2023-05-08T16:16:46;10.98;;;9.98;;
53207;SDS011;39093;52.788;6.940;2023-05-08T16:19:12;12.82;;;11.73;;
53207;SDS011;39093;52.788;6.940;2023-05-08T16:21:41;12.13;;;11.00;;
53207;SDS011;39093;52.788;6.940;2023-05-08T16:24:10;12.68;;;11.48;;
53207;SDS011;39093;52.788;6.940;2023-05-08T16:26:37;14.57;;;13.07;;
53207;SDS011;39093;52.788;6.940;2023-05-08T16:29:04;15.70;;;14.20;;
53207;SDS011;39093;52.788;6.940;2023-05-08T16:31:31;15.02;;;13.45;;
53207;SDS011;39093;52.788;6.940;2023-05-08T16:33:58;16.05;;;14.55;;
53207;SDS011;39093;52.788;6.940;2023-05-08T16:36:25;17.17;;;15.57;;
53207;SDS011;39093;52.788;6.940;2023-05-08T16:38:52;17.42;;;15.57;;
53207;SDS011;39093;52.788;6.940;2023-05-08T16:41:19;16.85;;;15.15;;
53207;SDS011;39093;52.788;6.940;2023-05-08T16:43:46;17.45;;;15.85;;
53207;SDS011;39093;52.788;6.940;2023-05-08T16:46:13;15.77;;;14.27;;
53207;SDS011;39093;52.788;6.940;2023-05-08T16:48:40;16.27;;;12.30;;
53207;SDS011;39093;52.788;6.940;2023-05-08T16:51:07;12.57;;;11.38;;
53207;SDS011;39093;52.788;6.940;2023-05-08T16:53:34;11.80;;;10.70;;
53207;SDS011;39093;52.788;6.940;2023-05-08T16:56:01;11.93;;;10.82;;
53207;SDS011;39093;52.788;6.940;2023-05-08T16:58:28;12.13;;;10.95;;
53207;SDS011;39093;52.788;6.940;2023-05-08T17:00:55;12.27;;;11.07;;
53207;SDS011;39093;52.788;6.940;2023-05-08T17:03:22;11.27;;;10.25;;
53207;SDS011;39093;52.788;6.940;2023-05-08T17:05:49;13.25;;;10.98;;
53207;SDS011;39093;52.788;6.940;2023-05-08T17:08:16;13.80;;;11.90;;
53207;SDS011;39093;52.788;6.940;2023-05-08T17:10:43;13.00;;;11.70;;
53207;SDS011;39093;52.788;6.940;2023-05-08T17:13:10;13.70;;;12.40;;
53207;SDS011;39093;52.788;6.940;2023-05-08T17:15:37;16.25;;;12.82;;
53207;SDS011;39093;52.788;6.940;2023-05-08T17:18:04;11.82;;;10.65;;
53207;SDS011;39093;52.788;6.940;2023-05-08T17:20:31;12.45;;;11.35;;
53207;SDS011;39093;52.788;6.940;2023-05-08T17:23:05;13.30;;;12.00;;
53207;SDS011;39093;52.788;6.940;2023-05-08T17:25:32;15.27;;;12.20;;
53207;SDS011;39093;52.788;6.940;2023-05-08T17:28:00;14.88;;;13.40;;
53207;SDS011;39093;52.788;6.940;2023-05-08T17:30:27;14.50;;;13.10;;
53207;SDS011;39093;52.788;6.940;2023-05-08T17:32:56;15.60;;;13.20;;
53207;SDS011;39093;52.788;6.940;2023-05-08T17:35:23;14.98;;;13.55;;
53207;SDS011;39093;52.788;6.940;2023-05-08T17:37:50;15.93;;;14.32;;
53207;SDS011;39093;52.788;6.940;2023-05-08T17:40:17;16.15;;;14.55;;
53207;SDS011;39093;52.788;6.940;2023-05-08T17:42:44;18.77;;;16.98;;
53207;SDS011;39093;52.788;6.940;2023-05-08T17:45:11;17.23;;;15.45;;
53207;SDS011;39093;52.788;6.940;2023-05-08T17:47:38;18.35;;;14.43;;
53207;SDS011;39093;52.788;6.940;2023-05-08T17:50:05;16.20;;;14.68;;
53207;SDS011;39093;52.788;6.940;2023-05-08T17:52:34;14.88;;;13.55;;
53207;SDS011;39093;52.788;6.940;2023-05-08T17:55:02;17.65;;;16.05;;
53207;SDS011;39093;52.788;6.940;2023-05-08T17:57:29;18.13;;;16.27;;
53207;SDS011;39093;52.788;6.940;2023-05-08T17:59:55;17.70;;;16.15;;
53207;SDS011;39093;52.788;6.940;2023-05-08T18:02:22;17.15;;;15.70;;
53207;SDS011;39093;52.788;6.940;2023-05-08T18:04:50;16.88;;;15.32;;
53207;SDS011;39093;52.788;6.940;2023-05-08T18:07:17;15.02;;;13.73;;
53207;SDS011;39093;52.788;6.940;2023-05-08T18:09:44;17.90;;;16.23;;
53207;SDS011;39093;52.788;6.940;2023-05-08T18:12:11;15.98;;;14.57;;
53207;SDS011;39093;52.788;6.940;2023-05-08T18:14:38;17.60;;;15.75;;
53207;SDS011;39093;52.788;6.940;2023-05-08T18:17:05;18.10;;;16.33;;